Time;durP1;ratioP1;P1;durP2;ratioP2;P2;SDS_P1;SDS_P2;PMS_P1;PMS_P2;Temp;Humidity;BMP_temperature;BMP_pressure;BME280_temperature;BME280_humidity;BME280_pressure;Samples;Min_cycle;Max_cycle;Signal;HPM_P1;HPM_P2
2021/05/18 00:00:53;;;;;;;10.00;5.30;;;12.20;99.90;;;;;;5047243;28;20212;-49
2021/05/18 00:03:20;;;;;;;14.47;5.60;;;12.10;99.90;;;;;;5045760;28;20362;-49
2021/05/18 00:05:51;;;;;;;13.97;5.30;;;12.10;99.90;;;;;;5048103;28;21770;-49
2021/05/18 00:08:21;;;;;;;8.63;4.97;;;12.10;99.90;;;;;;5046545;28;20218;-49
2021/05/18 00:13:47;;;;;;;19.13;5.20;;;12.00;99.90;;;;;;5045451;28;20294;-49
2021/05/18 00:16:14;;;;;;;11.63;5.00;;;12.10;99.90;;;;;;5046245;28;20306;-50
2021/05/18 00:18:41;;;;;;;11.73;4.80;;;11.90;99.90;;;;;;5046680;28;20308;-49
2021/05/18 00:21:09;;;;;;;8.60;5.10;;;12.00;99.90;;;;;;5048618;28;20294;-49
2021/05/18 00:23:36;;;;;;;9.63;4.63;;;11.80;99.90;;;;;;5046047;28;20213;-49
2021/05/18 00:26:05;;;;;;;11.90;4.83;;;11.70;99.90;;;;;;5047622;28;21355;-50
2021/05/18 00:28:32;;;;;;;12.87;5.60;;;11.50;99.90;;;;;;5047659;28;22415;-49
2021/05/18 00:30:59;;;;;;;9.70;5.53;;;11.40;99.90;;;;;;5043707;28;20573;-50
2021/05/18 00:33:26;;;;;;;17.53;5.53;;;11.40;99.90;;;;;;5045288;28;20298;-50
2021/05/18 00:35:53;;;;;;;11.33;5.10;;;11.50;99.90;;;;;;5044845;28;20216;-56
2021/05/18 00:38:20;;;;;;;8.03;5.07;;;11.60;99.90;;;;;;5044023;28;20432;-50
2021/05/18 00:40:49;;;;;;;14.30;5.90;;;11.80;99.90;;;;;;5044458;28;20219;-49
2021/05/18 00:43:17;;;;;;;7.97;5.07;;;11.80;99.90;;;;;;5046865;28;20203;-49
2021/05/18 00:45:47;;;;;;;12.83;6.00;;;11.60;99.90;;;;;;5045221;28;20317;-49
2021/05/18 00:48:16;;;;;;;9.33;5.80;;;11.50;99.90;;;;;;5043467;28;20199;-49
2021/05/18 00:50:53;;;;;;;13.47;6.37;;;11.30;99.90;;;;;;5049248;28;20245;-49
2021/05/18 00:53:22;;;;;;;10.20;5.30;;;11.50;99.90;;;;;;5044270;28;20290;-49
2021/05/18 00:58:26;;;;;;;14.43;6.03;;;11.60;99.90;;;;;;5048942;28;20675;-49
2021/05/18 00:58:41;;;;;;;9.57;5.77;;;11.80;99.90;;;;;;5035860;28;20239;-49
2021/05/18 01:01:18;;;;;;;8.70;5.53;;;11.70;99.90;;;;;;5046510;28;20228;-49
2021/05/18 01:03:48;;;;;;;12.33;6.23;;;11.80;99.90;;;;;;5045851;28;20655;-49
2021/05/18 01:06:22;;;;;;;10.17;5.97;;;11.80;99.90;;;;;;5045559;28;20307;-49
2021/05/18 01:08:53;;;;;;;8.97;5.73;;;11.70;99.90;;;;;;5045728;28;20294;-49
2021/05/18 01:11:23;;;;;;;10.17;6.17;;;11.70;99.90;;;;;;5049101;28;20591;-49
2021/05/18 01:14:00;;;;;;;11.73;6.33;;;11.60;99.90;;;;;;5047594;28;20195;-49
2021/05/18 01:16:31;;;;;;;16.57;6.53;;;11.60;99.90;;;;;;5048089;28;20234;-49
2021/05/18 01:18:59;;;;;;;15.87;7.63;;;11.60;99.90;;;;;;5046302;28;20584;-49
2021/05/18 01:21:26;;;;;;;11.90;6.23;;;11.50;99.90;;;;;;5047503;28;20295;-50
2021/05/18 01:23:54;;;;;;;16.60;7.43;;;11.60;99.90;;;;;;5042983;28;20397;-50
2021/05/18 01:26:21;;;;;;;13.63;7.70;;;11.60;99.90;;;;;;5048069;28;20616;-49
2021/05/18 01:28:49;;;;;;;17.27;7.70;;;11.70;99.90;;;;;;5043801;28;20281;-49
2021/05/18 01:31:19;;;;;;;10.83;7.87;;;11.70;99.90;;;;;;5044238;28;20246;-49
2021/05/18 01:33:46;;;;;;;16.03;7.70;;;11.60;99.90;;;;;;5044355;28;20228;-49
2021/05/18 01:36:15;;;;;;;12.20;7.80;;;11.50;99.90;;;;;;5048171;28;20284;-50
2021/05/18 01:38:55;;;;;;;15.10;8.43;;;11.40;99.90;;;;;;5046669;28;20254;-49
2021/05/18 01:44:09;;;;;;;12.10;8.50;;;11.40;99.90;;;;;;5046229;28;20297;-50
2021/05/18 01:46:37;;;;;;;12.07;8.50;;;11.40;99.90;;;;;;5046548;28;21333;-48
2021/05/18 01:49:06;;;;;;;10.90;8.13;;;11.50;99.90;;;;;;5044230;28;20203;-47
2021/05/18 01:51:40;;;;;;;13.20;8.20;;;11.60;99.90;;;;;;5043494;28;20200;-48
2021/05/18 01:54:10;;;;;;;11.17;7.63;;;11.70;99.90;;;;;;5046365;28;20285;-50
2021/05/18 01:56:48;;;;;;;15.17;9.00;;;11.70;99.90;;;;;;5045078;28;20287;-49
2021/05/18 01:59:19;;;;;;;14.83;9.37;;;11.70;99.90;;;;;;5046420;28;20264;-50
2021/05/18 02:01:48;;;;;;;14.37;8.67;;;11.60;99.90;;;;;;5044177;28;20212;-49
2021/05/18 02:04:35;;;;;;;14.53;9.37;;;11.60;99.90;;;;;;5051549;28;20642;-50
2021/05/18 02:07:06;;;;;;;17.57;9.83;;;11.50;99.90;;;;;;5049631;28;20286;-49
2021/05/18 02:09:33;;;;;;;14.97;9.53;;;11.70;99.90;;;;;;5049470;28;20729;-50
2021/05/18 02:12:00;;;;;;;14.67;10.20;;;11.70;99.90;;;;;;5045831;28;20378;-50
2021/05/18 02:14:29;;;;;;;14.17;9.17;;;11.80;99.90;;;;;;5049957;28;20241;-49
2021/05/18 02:17:12;;;;;;;15.30;10.40;;;11.80;99.90;;;;;;5050906;28;20258;-49
2021/05/18 02:20:01;;;;;;;14.77;9.73;;;11.80;99.90;;;;;;5050835;28;20305;-49
2021/05/18 02:25:22;;;;;;;13.30;9.97;;;11.70;99.90;;;;;;5049086;28;20295;-49
2021/05/18 02:27:51;;;;;;;13.37;10.20;;;11.90;99.90;;;;;;5051977;28;20235;-50
2021/05/18 02:30:19;;;;;;;16.33;10.13;;;11.80;99.90;;;;;;5047514;28;20248;-49
2021/05/18 02:32:49;;;;;;;16.03;10.97;;;11.70;99.90;;;;;;5047729;28;20690;-49
2021/05/18 02:35:17;;;;;;;17.77;10.83;;;11.80;99.90;;;;;;5048712;28;20200;-49
2021/05/18 02:37:45;;;;;;;15.10;10.93;;;11.80;99.90;;;;;;5047384;28;20204;-49
2021/05/18 02:40:19;;;;;;;17.53;11.50;;;11.60;99.90;;;;;;5048792;28;20242;-50
2021/05/18 02:42:49;;;;;;;15.40;10.33;;;11.50;99.90;;;;;;5046179;28;20306;-49
2021/05/18 02:50:30;;;;;;;17.00;11.77;;;11.40;99.90;;;;;;5048045;28;20290;-50
2021/05/18 02:52:57;;;;;;;17.47;11.93;;;11.40;99.90;;;;;;5048395;28;20201;-49
2021/05/18 02:55:56;;;;;;;17.87;12.17;;;11.40;99.90;;;;;;5049557;28;20203;-49
2021/05/18 02:58:12;;;;;;;19.40;12.40;;;11.50;99.90;;;;;;5048672;28;20576;-49
2021/05/18 03:00:40;;;;;;;18.23;12.50;;;11.30;99.90;;;;;;5045791;28;20266;-49
2021/05/18 03:03:07;;;;;;;18.00;12.10;;;11.40;99.90;;;;;;5047730;28;20200;-49
2021/05/18 03:05:34;;;;;;;17.10;12.43;;;11.40;99.90;;;;;;5048612;28;20540;-49
2021/05/18 03:08:01;;;;;;;19.63;13.40;;;11.50;99.90;;;;;;5046785;28;20303;-49
2021/05/18 03:10:28;;;;;;;16.67;12.53;;;11.50;99.90;;;;;;5048116;28;20210;-49
2021/05/18 03:12:55;;;;;;;18.03;12.63;;;11.60;99.90;;;;;;5048829;28;20304;-49
2021/05/18 03:15:22;;;;;;;17.57;12.27;;;11.50;99.90;;;;;;5046429;28;20228;-50
2021/05/18 03:17:49;;;;;;;20.37;13.90;;;11.50;99.90;;;;;;5045594;28;20251;-49
2021/05/18 03:20:17;;;;;;;17.80;13.33;;;11.60;99.90;;;;;;5045642;28;20267;-49
2021/05/18 03:22:45;;;;;;;20.53;13.87;;;11.60;99.90;;;;;;5046791;28;20229;-50
2021/05/18 03:25:12;;;;;;;17.80;13.13;;;11.60;99.90;;;;;;5045601;28;20663;-50
2021/05/18 03:27:41;;;;;;;19.13;13.63;;;11.60;99.90;;;;;;5047061;28;20233;-50
2021/05/18 03:35:43;;;;;;;18.43;13.40;;;11.50;99.90;;;;;;5048422;28;20228;-50
2021/05/18 03:38:18;;;;;;;19.10;13.73;;;11.40;99.90;;;;;;5049459;28;20278;-49
2021/05/18 03:40:52;;;;;;;20.43;13.33;;;11.40;99.90;;;;;;5047266;28;20294;-49
2021/05/18 03:45:51;;;;;;;21.47;14.07;;;11.40;99.90;;;;;;5045713;28;20711;-49
2021/05/18 03:53:57;;;;;;;17.77;12.77;;;11.30;99.90;;;;;;5046208;28;20620;-49
2021/05/18 04:04:53;;;;;;;18.43;13.03;;;11.10;99.90;;;;;;5028839;28;20286;-49
2021/05/18 04:16:50;;;;;;;19.53;12.87;;;11.30;99.90;;;;;;5028434;28;20214;-49
2021/05/18 04:21:46;;;;;;;20.33;11.97;;;11.00;99.90;;;;;;5044847;28;20228;-50
2021/05/18 04:41:02;;;;;;;18.20;12.17;;;11.10;99.90;;;;;;5046813;28;20207;-49
2021/05/18 04:52:06;;;;;;;23.47;11.90;;;11.30;99.90;;;;;;5046395;28;20229;-49
2021/05/18 04:59:56;;;;;;;21.37;12.37;;;11.20;99.90;;;;;;5045093;28;20781;-49
2021/05/18 05:08:01;;;;;;;27.27;14.37;;;11.20;99.90;;;;;;5043846;28;20672;-49
2021/05/18 05:12:29;;;;;;;28.77;13.83;;;11.40;99.90;;;;;;5044578;28;20227;-50
2021/05/18 05:15:46;;;;;;;23.47;13.73;;;11.20;99.90;;;;;;5046629;28;20195;-49
2021/05/18 05:18:13;;;;;;;20.13;12.90;;;11.40;99.90;;;;;;5047274;28;20251;-49
2021/05/18 05:20:41;;;;;;;22.60;12.87;;;11.40;99.90;;;;;;5044506;28;20262;-50
2021/05/18 05:23:08;;;;;;;25.27;13.07;;;11.50;99.90;;;;;;5043863;28;20737;-50
2021/05/18 05:25:35;;;;;;;27.80;14.23;;;11.50;99.90;;;;;;5044683;28;20247;-50
2021/05/18 05:28:02;;;;;;;21.90;13.53;;;11.50;99.90;;;;;;5045143;28;20329;-49
2021/05/18 05:30:29;;;;;;;20.83;13.13;;;11.40;99.90;;;;;;5045903;28;20280;-49
2021/05/18 05:32:56;;;;;;;23.23;12.70;;;11.40;99.90;;;;;;5045662;28;20286;-49
2021/05/18 05:35:23;;;;;;;24.53;13.60;;;11.30;99.90;;;;;;5046398;28;20199;-49
2021/05/18 05:37:51;;;;;;;27.47;13.17;;;11.40;99.90;;;;;;5046883;28;20663;-49
2021/05/18 05:40:18;;;;;;;26.40;13.93;;;11.60;99.90;;;;;;5049301;28;20566;-49
2021/05/18 05:42:45;;;;;;;22.37;14.40;;;11.60;99.90;;;;;;5053041;28;20230;-49
2021/05/18 05:45:12;;;;;;;22.70;13.57;;;11.60;99.90;;;;;;5048997;28;20669;-50
2021/05/18 05:47:39;;;;;;;24.87;14.23;;;11.70;99.90;;;;;;5052284;28;20398;-49
2021/05/18 05:50:07;;;;;;;23.23;13.30;;;11.60;99.90;;;;;;5052524;28;20239;-49
2021/05/18 05:52:34;;;;;;;22.43;13.53;;;11.60;99.90;;;;;;5051040;28;20251;-49
2021/05/18 05:55:02;;;;;;;22.77;13.17;;;11.60;99.90;;;;;;5053320;28;20196;-49
2021/05/18 05:57:29;;;;;;;24.60;14.83;;;11.60;99.90;;;;;;5049463;28;21141;-49
2021/05/18 05:59:56;;;;;;;25.23;14.37;;;11.60;99.90;;;;;;5052495;28;20538;-49
2021/05/18 06:02:23;;;;;;;23.37;14.37;;;11.70;99.90;;;;;;5043654;28;20752;-49
2021/05/18 06:04:49;;;;;;;24.80;14.17;;;11.70;99.90;;;;;;5054336;28;20227;-50
2021/05/18 06:07:16;;;;;;;23.77;14.50;;;11.70;99.90;;;;;;5050922;28;20309;-49
2021/05/18 06:09:45;;;;;;;24.40;13.30;;;11.80;99.90;;;;;;5051419;28;20216;-49
2021/05/18 06:34:20;;;;;;;18.57;12.27;;;11.70;99.90;;;;;;5052121;28;20599;-49
2021/05/18 06:49:58;;;;;;;16.27;10.47;;;11.70;99.90;;;;;;5048449;28;20247;-48
2021/05/18 06:52:25;;;;;;;17.83;9.87;;;11.80;99.90;;;;;;5048001;28;20230;-48
2021/05/18 06:54:52;;;;;;;17.63;10.50;;;11.70;99.90;;;;;;5057618;28;20207;-49
2021/05/18 06:57:40;;;;;;;17.93;10.97;;;11.80;99.90;;;;;;5049992;28;21106;-48
2021/05/18 07:00:26;;;;;;;13.93;10.43;;;11.90;99.90;;;;;;5040931;28;21266;-48
2021/05/18 07:02:56;;;;;;;13.87;10.17;;;12.00;99.90;;;;;;5048742;28;20218;-49
2021/05/18 07:05:54;;;;;;;18.43;10.33;;;11.90;99.90;;;;;;5046341;28;20210;-49
2021/05/18 07:10:41;;;;;;;16.30;10.33;;;12.10;99.90;;;;;;5051728;28;20300;-48
2021/05/18 07:13:09;;;;;;;15.50;10.23;;;12.20;99.90;;;;;;5043198;28;20234;-48
2021/05/18 07:15:36;;;;;;;15.13;10.63;;;12.30;99.90;;;;;;5047102;28;20572;-48
2021/05/18 07:18:02;;;;;;;14.93;10.43;;;12.40;99.90;;;;;;5048056;28;20206;-49
2021/05/18 07:20:31;;;;;;;12.17;8.93;;;12.30;99.90;;;;;;5048032;28;20201;-48
2021/05/18 07:23:02;;;;;;;12.67;8.93;;;12.30;99.90;;;;;;5046358;28;20379;-49
2021/05/18 07:25:28;;;;;;;16.03;9.77;;;12.30;99.90;;;;;;5050057;28;20194;-49
2021/05/18 07:27:55;;;;;;;14.23;9.23;;;12.20;99.90;;;;;;5045801;28;20225;-48
2021/05/18 07:30:22;;;;;;;11.40;8.80;;;12.10;99.90;;;;;;5047438;28;20908;-49
2021/05/18 07:32:49;;;;;;;13.73;8.80;;;12.30;99.90;;;;;;5048554;28;20620;-48
2021/05/18 07:35:16;;;;;;;11.73;9.97;;;12.50;99.90;;;;;;5048556;28;20256;-48
2021/05/18 07:37:43;;;;;;;11.27;8.50;;;12.50;99.90;;;;;;5048722;28;20646;-48
2021/05/18 07:40:10;;;;;;;12.77;8.73;;;12.50;99.90;;;;;;5047745;28;20564;-48
2021/05/18 07:42:37;;;;;;;11.90;8.50;;;12.50;99.90;;;;;;5050122;28;20229;-48
2021/05/18 07:45:06;;;;;;;10.43;7.97;;;12.70;99.90;;;;;;5048661;28;20634;-48
2021/05/18 07:47:35;;;;;;;12.80;8.47;;;13.20;99.90;;;;;;5049104;28;20217;-48
2021/05/18 07:50:07;;;;;;;10.27;7.43;;;13.40;99.90;;;;;;5047030;28;20552;-49
2021/05/18 08:02:19;;;;;;;10.50;7.40;;;13.20;99.90;;;;;;5045649;28;20233;-55
2021/05/18 08:06:41;;;;;;;8.70;6.30;;;13.90;99.90;;;;;;5047217;28;20678;-55
2021/05/18 08:09:08;;;;;;;9.17;6.47;;;14.30;99.90;;;;;;5048618;28;20589;-54
2021/05/18 08:11:35;;;;;;;9.13;7.27;;;14.20;99.90;;;;;;5051386;28;20207;-55
2021/05/18 08:14:01;;;;;;;8.57;6.30;;;14.30;99.90;;;;;;5046376;28;20198;-55
2021/05/18 09:47:40;;;;;;;2.63;1.60;;;15.10;99.90;;;;;;5051123;28;20314;-49
2021/05/18 10:24:21;;;;;;;7.70;4.43;;;15.40;99.90;;;;;;5045976;28;20519;-49
2021/05/18 10:37:32;;;;;;;5.27;3.40;;;15.30;99.90;;;;;;5047341;28;20198;-49
2021/05/18 10:40:25;;;;;;;4.30;3.27;;;15.70;99.90;;;;;;5046405;28;20289;-50
2021/05/18 10:43:22;;;;;;;3.77;2.77;;;15.90;99.90;;;;;;5049730;28;20217;-49
2021/05/18 10:46:05;;;;;;;5.73;3.00;;;16.20;99.90;;;;;;5047313;28;20251;-50
2021/05/18 10:48:35;;;;;;;4.73;3.27;;;16.60;99.90;;;;;;5048158;28;20260;-49
2021/05/18 10:51:26;;;;;;;4.53;3.03;;;16.50;99.90;;;;;;5044157;28;20264;-48
2021/05/18 10:54:19;;;;;;;3.50;3.20;;;16.70;99.90;;;;;;5043376;28;20251;-49
2021/05/18 10:57:04;;;;;;;5.17;3.17;;;17.00;99.90;;;;;;5043150;28;20286;-48
2021/05/18 10:59:39;;;;;;;3.93;3.37;;;17.60;99.90;;;;;;5047708;28;20655;-50
2021/05/18 11:02:22;;;;;;;4.20;3.10;;;17.00;99.90;;;;;;5045411;28;20203;-49
2021/05/18 11:04:51;;;;;;;4.80;2.87;;;16.50;99.90;;;;;;5063856;28;20648;-50
2021/05/18 11:07:28;;;;;;;2.80;2.60;;;16.40;97.10;;;;;;5045106;28;20331;-49
2021/05/18 11:09:55;;;;;;;2.60;2.37;;;16.50;99.90;;;;;;5047767;28;20325;-49
2021/05/18 11:12:24;;;;;;;3.00;2.40;;;16.30;89.60;;;;;;5047586;28;20297;-49
2021/05/18 11:14:58;;;;;;;2.30;2.10;;;16.90;93.00;;;;;;5048212;28;20203;-50
2021/05/18 11:17:31;;;;;;;2.23;2.03;;;17.00;89.10;;;;;;5050298;28;20256;-50
2021/05/18 11:20:05;;;;;;;4.03;2.73;;;16.90;84.70;;;;;;5049029;28;20227;-49
2021/05/18 11:25:31;;;;;;;3.50;2.80;;;16.60;94.30;;;;;;5047297;28;20249;-49
2021/05/18 11:28:05;;;;;;;4.87;3.17;;;16.70;99.90;;;;;;5049240;28;21025;-49
2021/05/18 11:30:32;;;;;;;3.47;2.83;;;16.70;99.00;;;;;;5048386;28;20264;-50
2021/05/18 11:33:00;;;;;;;4.53;2.80;;;16.60;96.80;;;;;;5049928;28;20210;-49
2021/05/18 11:35:27;;;;;;;3.77;2.97;;;17.00;94.90;;;;;;5050468;28;20212;-49
2021/05/18 11:38:15;;;;;;;5.40;2.43;;;17.10;91.30;;;;;;5049216;28;20310;-49
2021/05/18 11:40:47;;;;;;;6.43;3.20;;;16.90;92.60;;;;;;5047839;28;20197;-49
2021/05/18 11:43:22;;;;;;;3.10;2.80;;;16.60;92.70;;;;;;5050616;28;20248;-49
2021/05/18 11:46:01;;;;;;;4.00;2.40;;;16.50;90.80;;;;;;5046704;28;20217;-49
2021/05/18 11:48:28;;;;;;;3.00;2.70;;;17.00;82.80;;;;;;5047153;28;20258;-49
2021/05/18 11:51:04;;;;;;;5.13;2.20;;;17.30;67.00;;;;;;5050796;28;20267;-50
2021/05/18 11:53:48;;;;;;;2.67;2.47;;;17.90;68.80;;;;;;5050347;28;20661;-49
2021/05/18 11:56:15;;;;;;;3.07;2.10;;;18.20;58.10;;;;;;5057826;28;20237;-49
2021/05/18 11:58:43;;;;;;;2.50;2.30;;;18.70;55.30;;;;;;5055410;28;20239;-50
2021/05/18 12:01:10;;;;;;;2.73;2.43;;;18.40;47.40;;;;;;5050302;28;20203;-49
2021/05/18 12:03:38;;;;;;;2.20;2.00;;;18.40;57.90;;;;;;5048079;28;20215;-49
2021/05/18 12:06:06;;;;;;;2.50;2.30;;;19.20;56.80;;;;;;5049673;28;20279;-49
2021/05/18 12:08:35;;;;;;;5.47;2.33;;;19.00;44.90;;;;;;5048657;28;20321;-49
2021/05/18 12:11:12;;;;;;;3.43;2.30;;;18.60;47.60;;;;;;5049896;28;20211;-50
2021/05/18 12:13:39;;;;;;;3.53;2.50;;;18.80;48.20;;;;;;5049790;28;20774;-50
2021/05/18 12:16:08;;;;;;;2.93;2.30;;;18.80;44.50;;;;;;5050637;28;20222;-50
2021/05/18 12:18:37;;;;;;;3.40;2.20;;;19.20;47.40;;;;;;5047743;28;20206;-49
2021/05/18 12:21:13;;;;;;;4.03;2.70;;;19.40;43.60;;;;;;5049283;28;20261;-49
2021/05/18 12:23:42;;;;;;;4.27;2.50;;;19.40;45.10;;;;;;5049113;28;20189;-50
2021/05/18 12:26:14;;;;;;;2.63;2.00;;;19.60;46.20;;;;;;5050890;28;20252;-49
2021/05/18 12:29:00;;;;;;;2.73;2.47;;;19.20;47.40;;;;;;5050418;28;20748;-49
2021/05/18 12:31:29;;;;;;;4.20;2.90;;;18.80;48.80;;;;;;5044588;28;20203;-49
2021/05/18 12:33:57;;;;;;;4.00;2.90;;;18.50;53.20;;;;;;5045928;28;20291;-50
2021/05/18 12:36:25;;;;;;;4.67;3.37;;;18.50;57.70;;;;;;5044461;28;20878;-49
2021/05/18 12:39:30;;;;;;;2.50;2.30;;;18.40;53.90;;;;;;5046913;28;20241;-49
2021/05/18 12:42:00;;;;;;;4.77;2.90;;;18.30;53.20;;;;;;5010548;28;20265;-49
2021/05/18 12:44:33;;;;;;;3.90;3.00;;;18.00;56.30;;;;;;5047503;28;20225;-50
2021/05/18 12:47:05;;;;;;;3.00;2.70;;;18.10;52.20;;;;;;5048352;28;20210;-49
2021/05/18 12:49:38;;;;;;;3.40;2.47;;;17.80;55.40;;;;;;5050552;28;20214;-49
2021/05/18 12:52:12;;;;;;;7.33;3.07;;;18.40;54.90;;;;;;5046418;28;20204;-49
2021/05/18 12:54:39;;;;;;;3.40;2.13;;;18.70;49.20;;;;;;5044659;28;20643;-49
2021/05/18 12:57:07;;;;;;;5.07;2.97;;;18.60;40.40;;;;;;5049327;28;20629;-48
2021/05/18 12:59:34;;;;;;;5.27;3.27;;;18.20;44.60;;;;;;5049221;28;20311;-49
2021/05/18 13:02:01;;;;;;;4.47;2.97;;;17.90;51.60;;;;;;5045608;28;20203;-49
2021/05/18 13:04:37;;;;;;;3.90;2.90;;;17.70;55.20;;;;;;5047638;28;20209;-49
2021/05/18 13:07:14;;;;;;;3.93;2.43;;;17.30;55.10;;;;;;5045176;28;20222;-49
2021/05/18 13:09:41;;;;;;;2.70;2.00;;;17.20;54.80;;;;;;5048116;28;20688;-57
2021/05/18 13:12:12;;;;;;;4.17;2.57;;;17.10;52.40;;;;;;5046428;28;20304;-50
2021/05/18 13:14:58;;;;;;;6.93;3.23;;;17.10;53.60;;;;;;5046729;28;20228;-50
2021/05/18 13:17:26;;;;;;;3.03;2.40;;;16.90;57.40;;;;;;5048075;28;20500;-49
2021/05/18 13:20:03;;;;;;;3.60;2.93;;;16.80;56.40;;;;;;5049637;28;20196;-49
2021/05/18 13:22:34;;;;;;;3.40;2.53;;;16.60;61.20;;;;;;5045606;28;20322;-50
2021/05/18 13:27:51;;;;;;;3.50;2.97;;;17.20;59.70;;;;;;5047221;28;20585;-49
2021/05/18 13:30:19;;;;;;;3.47;2.83;;;17.30;62.80;;;;;;5049225;28;20223;-49
2021/05/18 13:32:50;;;;;;;4.27;2.50;;;17.20;64.90;;;;;;5048751;28;20198;-50
2021/05/18 13:35:19;;;;;;;2.83;2.20;;;17.60;62.60;;;;;;5049346;28;20209;-49
2021/05/18 13:37:47;;;;;;;4.00;2.10;;;17.80;57.10;;;;;;5063342;28;20228;-49
2021/05/18 13:40:16;;;;;;;2.50;2.17;;;17.50;54.80;;;;;;5051062;28;20209;-50
2021/05/18 13:42:47;;;;;;;4.97;2.40;;;17.10;53.80;;;;;;5047622;28;20280;-50
2021/05/18 13:45:14;;;;;;;4.97;2.30;;;16.90;52.00;;;;;;5044302;28;20212;-51
2021/05/18 13:47:41;;;;;;;3.30;2.50;;;17.10;53.10;;;;;;5049365;28;20212;-49
2021/05/18 13:50:09;;;;;;;3.50;2.20;;;17.20;55.00;;;;;;5049440;28;20263;-49
2021/05/18 13:52:36;;;;;;;4.90;2.07;;;17.50;57.80;;;;;;5045745;28;20197;-50
2021/05/18 13:55:03;;;;;;;3.60;2.00;;;17.80;55.00;;;;;;5048825;28;20640;-50
2021/05/18 13:57:30;;;;;;;5.13;1.97;;;17.70;56.60;;;;;;5044587;28;20242;-50
2021/05/18 13:59:57;;;;;;;2.33;1.70;;;17.30;58.20;;;;;;5053527;28;20244;-49
2021/05/18 14:02:27;;;;;;;4.43;1.77;;;17.20;58.50;;;;;;5048647;28;20316;-50
2021/05/18 14:04:56;;;;;;;1.93;1.60;;;17.00;63.30;;;;;;5055411;28;20202;-50
2021/05/18 14:11:04;;;;;;;2.10;1.70;;;17.10;57.70;;;;;;5046196;28;20318;-49
2021/05/18 14:13:36;;;;;;;1.97;1.73;;;17.00;58.80;;;;;;5051465;28;20200;-49
2021/05/18 14:16:05;;;;;;;1.93;1.20;;;17.40;57.20;;;;;;5049732;28;20548;-49
2021/05/18 14:18:33;;;;;;;2.73;1.50;;;17.30;56.20;;;;;;5052338;28;20676;-49
2021/05/18 14:21:02;;;;;;;1.40;1.30;;;17.50;52.90;;;;;;5053391;28;20202;-49
2021/05/18 14:26:30;;;;;;;1.83;1.30;;;17.70;57.50;;;;;;5039629;28;20245;-49
2021/05/18 14:28:57;;;;;;;1.73;1.40;;;17.60;53.00;;;;;;5056623;28;20834;-49
2021/05/18 14:31:25;;;;;;;2.87;1.00;;;17.40;53.40;;;;;;5052865;28;20207;-49
2021/05/18 14:33:52;;;;;;;1.43;1.33;;;17.50;53.70;;;;;;5054215;28;20694;-50
2021/05/18 14:36:20;;;;;;;1.70;1.30;;;17.60;54.10;;;;;;5051394;28;20206;-49
2021/05/18 14:39:05;;;;;;;1.90;1.43;;;17.90;55.90;;;;;;5056443;28;20207;-49
2021/05/18 14:44:23;;;;;;;1.73;1.43;;;18.00;54.20;;;;;;5054963;28;20203;-49
2021/05/18 14:47:01;;;;;;;1.70;1.27;;;17.80;53.50;;;;;;5053727;28;20209;-49
2021/05/18 14:55:18;;;;;;;2.77;1.33;;;17.40;56.00;;;;;;5054933;28;20291;-49
2021/05/18 14:57:46;;;;;;;2.57;1.40;;;17.10;58.90;;;;;;5054573;28;20234;-49
2021/05/18 15:00:14;;;;;;;4.73;1.57;;;17.50;59.30;;;;;;5055800;28;20291;-49
2021/05/18 15:02:41;;;;;;;2.73;1.40;;;17.30;59.80;;;;;;5054547;28;20236;-48
2021/05/18 15:05:08;;;;;;;3.43;1.50;;;17.30;62.90;;;;;;5056339;28;20212;-49
2021/05/18 15:07:35;;;;;;;1.60;1.50;;;17.40;59.30;;;;;;5051121;28;20288;-49
2021/05/18 15:10:04;;;;;;;2.30;1.50;;;17.50;61.70;;;;;;5053707;28;20279;-49
2021/05/18 15:12:31;;;;;;;2.23;1.53;;;17.20;63.90;;;;;;5053769;28;20196;-49
2021/05/18 15:14:57;;;;;;;2.00;1.77;;;17.40;61.40;;;;;;5048949;28;20243;-49
2021/05/18 15:17:25;;;;;;;2.47;1.60;;;17.50;59.80;;;;;;5051544;28;20524;-49
2021/05/18 15:19:53;;;;;;;3.37;1.80;;;17.60;58.70;;;;;;5051989;28;20193;-48
2021/05/18 15:22:20;;;;;;;3.03;1.80;;;17.50;53.60;;;;;;5050568;28;20266;-49
2021/05/18 15:24:47;;;;;;;3.30;1.50;;;17.30;54.30;;;;;;5051587;28;20213;-49
2021/05/18 15:27:14;;;;;;;2.33;1.97;;;17.50;55.90;;;;;;5054510;28;20315;-49
2021/05/18 15:29:41;;;;;;;3.03;1.93;;;17.50;53.90;;;;;;5053987;28;20226;-49
2021/05/18 15:32:08;;;;;;;2.10;1.43;;;17.30;50.80;;;;;;5053402;28;20227;-49
2021/05/18 15:34:35;;;;;;;2.97;1.70;;;17.10;54.30;;;;;;5053494;28;20880;-49
2021/05/18 15:37:04;;;;;;;1.97;1.57;;;17.10;55.60;;;;;;5051684;28;20200;-49
2021/05/18 15:39:31;;;;;;;3.37;1.30;;;17.40;53.50;;;;;;5044227;28;20314;-51
2021/05/18 15:41:58;;;;;;;1.50;1.13;;;17.40;52.30;;;;;;5047495;28;20204;-49
2021/05/18 15:44:25;;;;;;;3.33;1.53;;;17.30;52.50;;;;;;5051891;28;20937;-48
2021/05/18 15:46:52;;;;;;;1.40;1.00;;;17.30;50.80;;;;;;5054470;28;20284;-49
2021/05/18 15:49:19;;;;;;;2.37;1.33;;;17.40;47.80;;;;;;5051463;28;20223;-49
2021/05/18 15:51:46;;;;;;;2.03;1.30;;;17.40;49.30;;;;;;5052188;28;20205;-49
2021/05/18 15:54:12;;;;;;;0.87;0.80;;;17.30;44.40;;;;;;5052868;28;20244;-49
2021/05/18 15:56:39;;;;;;;2.27;0.90;;;17.20;45.50;;;;;;5053769;28;20207;-50
2021/05/18 15:59:06;;;;;;;1.37;0.93;;;17.20;47.60;;;;;;5056605;28;20663;-50
2021/05/18 16:01:37;;;;;;;1.20;0.87;;;17.30;46.10;;;;;;5051921;28;20201;-50
2021/05/18 16:04:06;;;;;;;1.30;0.70;;;17.20;43.70;;;;;;5051445;28;20558;-49
2021/05/18 16:06:36;;;;;;;0.93;0.83;;;17.00;44.70;;;;;;5045017;28;20212;-48
2021/05/18 16:09:03;;;;;;;1.80;0.67;;;16.80;46.10;;;;;;5048530;28;20287;-49
2021/05/18 16:11:30;;;;;;;2.20;0.73;;;16.90;47.70;;;;;;5051252;28;20659;-49
2021/05/18 16:13:57;;;;;;;1.57;0.60;;;16.90;47.70;;;;;;5047052;28;20230;-48
2021/05/18 16:16:24;;;;;;;2.07;0.63;;;16.90;52.30;;;;;;5049750;28;20295;-48
2021/05/18 16:18:52;;;;;;;2.20;0.80;;;17.10;51.10;;;;;;5050793;28;20605;-51
2021/05/18 16:21:20;;;;;;;1.27;0.60;;;17.10;49.30;;;;;;5049022;28;20672;-51
2021/05/18 16:23:49;;;;;;;1.03;0.73;;;17.10;50.50;;;;;;5046734;28;20237;-51
2021/05/18 16:26:27;;;;;;;1.10;0.83;;;16.90;51.00;;;;;;5048347;28;20305;-48
2021/05/18 16:28:55;;;;;;;1.60;1.10;;;17.00;50.80;;;;;;5050562;28;20247;-49
2021/05/18 16:31:23;;;;;;;3.03;0.70;;;17.10;46.90;;;;;;5048500;28;20255;-49
2021/05/18 16:33:51;;;;;;;1.03;0.70;;;17.00;48.60;;;;;;5047921;28;20212;-49
2021/05/18 16:36:17;;;;;;;0.63;0.47;;;16.90;49.20;;;;;;5050926;28;20208;-48
2021/05/18 16:38:45;;;;;;;1.10;0.80;;;16.90;51.20;;;;;;5053085;28;20646;-48
2021/05/18 16:41:35;;;;;;;1.27;0.80;;;16.80;51.50;;;;;;5050516;28;21946;-48
2021/05/18 16:44:03;;;;;;;0.80;0.70;;;16.80;54.00;;;;;;5044078;28;20307;-49
2021/05/18 16:46:30;;;;;;;1.30;0.70;;;16.80;54.80;;;;;;5046718;28;20308;-49
2021/05/18 16:48:57;;;;;;;2.50;0.90;;;16.90;50.60;;;;;;5044620;28;20209;-48
2021/05/18 16:51:24;;;;;;;2.00;0.93;;;17.10;49.90;;;;;;5048546;28;20247;-49
2021/05/18 16:53:53;;;;;;;0.60;0.60;;;17.00;49.70;;;;;;5043137;28;20852;-49
2021/05/18 16:56:22;;;;;;;1.03;0.90;;;17.00;49.90;;;;;;5046814;28;20203;-48
2021/05/18 16:58:52;;;;;;;2.93;0.90;;;16.90;48.60;;;;;;5046782;28;20200;-49
2021/05/18 17:01:20;;;;;;;1.40;0.87;;;16.90;49.50;;;;;;5049739;28;20209;-49
2021/05/18 17:04:07;;;;;;;1.50;0.80;;;16.90;49.60;;;;;;5044624;28;20562;-49
2021/05/18 17:06:35;;;;;;;2.03;0.80;;;16.80;48.70;;;;;;5045318;28;20205;-49
2021/05/18 17:09:04;;;;;;;1.97;0.80;;;16.80;49.90;;;;;;5043947;28;20348;-49
2021/05/18 17:11:31;;;;;;;1.97;0.90;;;16.90;50.20;;;;;;5047827;28;20266;-49
2021/05/18 17:13:58;;;;;;;1.90;0.60;;;16.80;51.90;;;;;;5046478;28;20194;-49
2021/05/18 17:16:24;;;;;;;2.00;0.80;;;16.90;50.60;;;;;;5046581;28;20207;-49
2021/05/18 17:18:51;;;;;;;2.03;0.80;;;16.70;50.80;;;;;;5046121;28;20652;-49
2021/05/18 17:21:18;;;;;;;1.00;0.83;;;16.90;51.80;;;;;;5045079;28;20258;-49
2021/05/18 17:23:45;;;;;;;0.93;0.70;;;16.70;51.80;;;;;;5046602;28;20208;-48
2021/05/18 17:26:13;;;;;;;3.63;1.07;;;16.60;54.60;;;;;;5047506;28;20205;-48
2021/05/18 17:28:40;;;;;;;0.93;0.70;;;16.50;54.80;;;;;;5041519;28;21050;-49
2021/05/18 17:31:11;;;;;;;0.70;0.70;;;16.50;57.70;;;;;;5045079;28;20389;-49
2021/05/18 17:33:38;;;;;;;3.23;1.43;;;16.10;56.60;;;;;;5049516;28;20221;-49
2021/05/18 17:36:05;;;;;;;2.77;1.00;;;16.40;58.50;;;;;;5041534;28;20205;-49
2021/05/18 17:38:32;;;;;;;1.10;0.70;;;16.50;57.90;;;;;;5047495;28;20227;-49
2021/05/18 17:41:01;;;;;;;1.63;0.90;;;16.50;55.70;;;;;;5045475;28;20205;-49
2021/05/18 17:43:29;;;;;;;1.13;0.87;;;16.40;58.50;;;;;;5044721;28;20211;-48
2021/05/18 17:46:00;;;;;;;4.63;0.90;;;16.30;58.80;;;;;;5046391;28;20851;-49
2021/05/18 17:48:27;;;;;;;1.53;0.83;;;16.50;56.80;;;;;;5044928;28;20233;-48